sensor_id;sensor_type;location;lat;lon;timestamp;temperature;humidity
418;DHT22;49;48.530;9.200;2023-04-01T00:32:07;12.40;57.80
418;DHT22;49;48.530;9.200;2023-04-01T00:40:06;12.90;55.30
418;DHT22;49;48.530;9.200;2023-04-01T00:42:39;12.50;58.70
418;DHT22;49;48.530;9.200;2023-04-01T00:45:35;13.00;54.30
418;DHT22;49;48.530;9.200;2023-04-01T00:48:22;12.80;55.10
418;DHT22;49;48.530;9.200;2023-04-01T00:51:08;12.40;56.70
418;DHT22;49;48.530;9.200;2023-04-01T00:53:49;12.00;61.00
418;DHT22;49;48.530;9.200;2023-04-01T00:56:48;12.20;60.00
418;DHT22;49;48.530;9.200;2023-04-01T00:59:29;12.30;58.50
418;DHT22;49;48.530;9.200;2023-04-01T01:02:08;12.20;59.70
418;DHT22;49;48.530;9.200;2023-04-01T01:08:10;12.20;57.60
418;DHT22;49;48.530;9.200;2023-04-01T01:11:07;12.10;59.00
418;DHT22;49;48.530;9.200;2023-04-01T01:14:10;12.10;61.70
418;DHT22;49;48.530;9.200;2023-04-01T01:17:00;12.50;56.50
418;DHT22;49;48.530;9.200;2023-04-01T01:42:44;12.60;52.30
418;DHT22;49;48.530;9.200;2023-04-01T02:12:37;12.20;53.60
418;DHT22;49;48.530;9.200;2023-04-01T02:14:49;12.10;52.30
418;DHT22;49;48.530;9.200;2023-04-01T02:17:27;12.20;52.90
418;DHT22;49;48.530;9.200;2023-04-01T02:20:01;12.40;52.90
418;DHT22;49;48.530;9.200;2023-04-01T02:22:47;12.20;51.50
418;DHT22;49;48.530;9.200;2023-04-01T02:25:28;12.10;58.10
418;DHT22;49;48.530;9.200;2023-04-01T02:28:02;11.90;55.60
418;DHT22;49;48.530;9.200;2023-04-01T02:30:43;11.70;59.10
418;DHT22;49;48.530;9.200;2023-04-01T02:36:59;11.80;57.60
418;DHT22;49;48.530;9.200;2023-04-01T02:39:48;11.20;64.20
418;DHT22;49;48.530;9.200;2023-04-01T02:42:37;11.40;63.00
418;DHT22;49;48.530;9.200;2023-04-01T02:45:31;11.50;64.10
418;DHT22;49;48.530;9.200;2023-04-01T02:48:32;11.70;59.80
418;DHT22;49;48.530;9.200;2023-04-01T02:51:04;11.60;60.60
418;DHT22;49;48.530;9.200;2023-04-01T02:53:46;11.50;63.00
418;DHT22;49;48.530;9.200;2023-04-01T02:56:27;11.20;64.30
418;DHT22;49;48.530;9.200;2023-04-01T02:59:00;11.00;67.50
418;DHT22;49;48.530;9.200;2023-04-01T03:01:33;11.00;64.90
418;DHT22;49;48.530;9.200;2023-04-01T03:04:11;11.30;64.30
418;DHT22;49;48.530;9.200;2023-04-01T03:06:46;11.60;64.60
418;DHT22;49;48.530;9.200;2023-04-01T03:09:27;11.40;60.20
418;DHT22;49;48.530;9.200;2023-04-01T03:12:00;11.50;62.50
418;DHT22;49;48.530;9.200;2023-04-01T03:14:51;11.40;63.30
418;DHT22;49;48.530;9.200;2023-04-01T03:17:45;11.00;62.60
418;DHT22;49;48.530;9.200;2023-04-01T03:20:17;10.70;66.40
418;DHT22;49;48.530;9.200;2023-04-01T03:22:50;10.50;65.40
418;DHT22;49;48.530;9.200;2023-04-01T03:25:31;10.60;67.80
418;DHT22;49;48.530;9.200;2023-04-01T03:28:13;10.70;66.00
418;DHT22;49;48.530;9.200;2023-04-01T03:30:44;10.90;64.50
418;DHT22;49;48.530;9.200;2023-04-01T03:37:03;11.00;65.60
418;DHT22;49;48.530;9.200;2023-04-01T03:39:37;10.70;66.60
418;DHT22;49;48.530;9.200;2023-04-01T03:45:54;11.10;63.80
418;DHT22;49;48.530;9.200;2023-04-01T03:48:34;11.10;61.60
418;DHT22;49;48.530;9.200;2023-04-01T03:51:13;10.80;61.90
418;DHT22;49;48.530;9.200;2023-04-01T03:53:53;10.80;65.10
418;DHT22;49;48.530;9.200;2023-04-01T03:56:35;10.90;59.90
418;DHT22;49;48.530;9.200;2023-04-01T03:59:10;11.10;59.30
418;DHT22;49;48.530;9.200;2023-04-01T04:01:52;10.80;62.70
418;DHT22;49;48.530;9.200;2023-04-01T04:07:14;11.20;58.10
418;DHT22;49;48.530;9.200;2023-04-01T04:09:56;11.30;57.70
418;DHT22;49;48.530;9.200;2023-04-01T04:12:42;11.60;58.00
418;DHT22;49;48.530;9.200;2023-04-01T04:15:38;11.80;55.10
418;DHT22;49;48.530;9.200;2023-04-01T04:18:13;11.60;55.70
418;DHT22;49;48.530;9.200;2023-04-01T04:21:06;11.80;54.30
418;DHT22;49;48.530;9.200;2023-04-01T04:23:56;12.00;55.20
418;DHT22;49;48.530;9.200;2023-04-01T04:26:56;12.00;53.40
418;DHT22;49;48.530;9.200;2023-04-01T04:29:39;11.20;57.50
418;DHT22;49;48.530;9.200;2023-04-01T04:32:22;11.40;59.20
418;DHT22;49;48.530;9.200;2023-04-01T04:35:01;11.40;58.10
418;DHT22;49;48.530;9.200;2023-04-01T04:37:42;11.00;59.70
418;DHT22;49;48.530;9.200;2023-04-01T04:40:31;11.40;59.40
418;DHT22;49;48.530;9.200;2023-04-01T04:45:48;11.30;60.70
418;DHT22;49;48.530;9.200;2023-04-01T04:48:26;11.60;58.80
418;DHT22;49;48.530;9.200;2023-04-01T04:51:02;12.10;55.60
418;DHT22;49;48.530;9.200;2023-04-01T04:53:38;12.00;54.40
418;DHT22;49;48.530;9.200;2023-04-01T04:56:07;11.90;55.50
418;DHT22;49;48.530;9.200;2023-04-01T04:58:59;11.90;55.90
418;DHT22;49;48.530;9.200;2023-04-01T05:01:35;11.80;56.40
418;DHT22;49;48.530;9.200;2023-04-01T05:04:08;11.80;56.00
418;DHT22;49;48.530;9.200;2023-04-01T05:06:47;11.70;58.50
418;DHT22;49;48.530;9.200;2023-04-01T05:09:29;12.00;55.00
418;DHT22;49;48.530;9.200;2023-04-01T05:12:00;11.90;55.00
418;DHT22;49;48.530;9.200;2023-04-01T05:14:28;11.50;57.70
418;DHT22;49;48.530;9.200;2023-04-01T05:16:58;11.50;59.30
418;DHT22;49;48.530;9.200;2023-04-01T05:19:29;11.30;60.60
418;DHT22;49;48.530;9.200;2023-04-01T05:22:14;11.50;60.30
418;DHT22;49;48.530;9.200;2023-04-01T05:24:44;12.00;59.30
418;DHT22;49;48.530;9.200;2023-04-01T05:27:25;12.20;54.50
418;DHT22;49;48.530;9.200;2023-04-01T05:29:56;12.00;53.70
418;DHT22;49;48.530;9.200;2023-04-01T05:32:35;12.10;54.00
418;DHT22;49;48.530;9.200;2023-04-01T05:35:06;12.20;53.40
418;DHT22;49;48.530;9.200;2023-04-01T05:37:44;12.40;51.70
418;DHT22;49;48.530;9.200;2023-04-01T05:40:16;12.30;50.10
418;DHT22;49;48.530;9.200;2023-04-01T05:42:58;12.10;53.70
418;DHT22;49;48.530;9.200;2023-04-01T05:45:29;12.50;48.00
418;DHT22;49;48.530;9.200;2023-04-01T05:48:13;12.20;49.40
418;DHT22;49;48.530;9.200;2023-04-01T05:50:47;12.50;48.20
418;DHT22;49;48.530;9.200;2023-04-01T05:53:17;12.70;47.70
418;DHT22;49;48.530;9.200;2023-04-01T05:55:48;13.10;45.20
418;DHT22;49;48.530;9.200;2023-04-01T05:58:18;13.30;43.90
418;DHT22;49;48.530;9.200;2023-04-01T06:00:51;13.30;43.30
418;DHT22;49;48.530;9.200;2023-04-01T06:03:33;13.50;40.40
418;DHT22;49;48.530;9.200;2023-04-01T06:06:20;13.60;42.30
418;DHT22;49;48.530;9.200;2023-04-01T06:08:50;13.50;40.60
418;DHT22;49;48.530;9.200;2023-04-01T06:11:40;13.70;39.60
418;DHT22;49;48.530;9.200;2023-04-01T06:21:18;15.30;31.10
418;DHT22;49;48.530;9.200;2023-04-01T06:24:10;14.80;33.60
418;DHT22;49;48.530;9.200;2023-04-01T06:27:14;15.50;31.10
418;DHT22;49;48.530;9.200;2023-04-01T06:30:04;15.40;32.00
418;DHT22;49;48.530;9.200;2023-04-01T06:39:42;14.10;36.00
418;DHT22;49;48.530;9.200;2023-04-01T06:42:51;13.70;39.90
418;DHT22;49;48.530;9.200;2023-04-01T06:45:36;13.80;37.80
418;DHT22;49;48.530;9.200;2023-04-01T06:48:31;13.90;39.40
418;DHT22;49;48.530;9.200;2023-04-01T06:51:17;13.70;41.00
418;DHT22;49;48.530;9.200;2023-04-01T07:02:59;13.60;41.60
418;DHT22;49;48.530;9.200;2023-04-01T07:05:36;13.30;39.80
418;DHT22;49;48.530;9.200;2023-04-01T07:12:16;13.20;41.80
418;DHT22;49;48.530;9.200;2023-04-01T07:14:58;13.20;40.70
418;DHT22;49;48.530;9.200;2023-04-01T07:17:45;13.00;43.90
418;DHT22;49;48.530;9.200;2023-04-01T07:20:17;13.00;42.50
418;DHT22;49;48.530;9.200;2023-04-01T07:22:49;12.80;41.40
418;DHT22;49;48.530;9.200;2023-04-01T07:25:36;13.00;44.10
418;DHT22;49;48.530;9.200;2023-04-01T07:28:16;13.30;40.90
418;DHT22;49;48.530;9.200;2023-04-01T07:30:58;13.30;40.30
418;DHT22;49;48.530;9.200;2023-04-01T07:33:50;13.30;41.50
418;DHT22;49;48.530;9.200;2023-04-01T07:39:55;13.40;44.00
418;DHT22;49;48.530;9.200;2023-04-01T07:43:01;13.60;44.20
418;DHT22;49;48.530;9.200;2023-04-01T07:46:03;13.70;40.40
418;DHT22;49;48.530;9.200;2023-04-01T07:49:03;13.30;42.70
418;DHT22;49;48.530;9.200;2023-04-01T07:51:47;13.60;41.20
418;DHT22;49;48.530;9.200;2023-04-01T07:57:46;13.70;41.60
418;DHT22;49;48.530;9.200;2023-04-01T08:00:28;13.50;40.50
418;DHT22;49;48.530;9.200;2023-04-01T08:21:54;13.10;43.10
418;DHT22;49;48.530;9.200;2023-04-01T08:24:27;12.90;42.00
418;DHT22;49;48.530;9.200;2023-04-01T08:27:00;12.50;43.00
418;DHT22;49;48.530;9.200;2023-04-01T08:29:40;12.80;44.40
418;DHT22;49;48.530;9.200;2023-04-01T08:32:12;12.90;45.20
418;DHT22;49;48.530;9.200;2023-04-01T08:34:50;13.20;45.60
418;DHT22;49;48.530;9.200;2023-04-01T08:37:31;13.20;45.20
418;DHT22;49;48.530;9.200;2023-04-01T08:40:19;13.40;45.70
418;DHT22;49;48.530;9.200;2023-04-01T08:43:06;13.00;46.50
418;DHT22;49;48.530;9.200;2023-04-01T08:46:06;13.20;45.50
418;DHT22;49;48.530;9.200;2023-04-01T08:51:58;13.20;47.30
418;DHT22;49;48.530;9.200;2023-04-01T08:54:49;13.30;43.40
418;DHT22;49;48.530;9.200;2023-04-01T08:57:44;13.00;45.30
418;DHT22;49;48.530;9.200;2023-04-01T09:00:31;12.90;44.70
418;DHT22;49;48.530;9.200;2023-04-01T09:08:41;12.70;49.50
418;DHT22;49;48.530;9.200;2023-04-01T09:21:32;12.60;55.30
418;DHT22;49;48.530;9.200;2023-04-01T09:24:46;12.60;57.10
418;DHT22;49;48.530;9.200;2023-04-01T09:34:20;13.30;54.00
418;DHT22;49;48.530;9.200;2023-04-01T09:37:25;13.10;55.20
418;DHT22;49;48.530;9.200;2023-04-01T09:41:10;13.00;57.00
418;DHT22;49;48.530;9.200;2023-04-01T09:43:50;13.20;54.90
418;DHT22;49;48.530;9.200;2023-04-01T09:46:41;13.40;52.60
418;DHT22;49;48.530;9.200;2023-04-01T09:52:49;12.90;57.50
418;DHT22;49;48.530;9.200;2023-04-01T10:18:06;13.10;59.20
418;DHT22;49;48.530;9.200;2023-04-01T10:21:05;12.80;63.30
418;DHT22;49;48.530;9.200;2023-04-01T10:27:05;13.00;65.90
418;DHT22;49;48.530;9.200;2023-04-01T10:30:04;13.10;63.80
418;DHT22;49;48.530;9.200;2023-04-01T10:36:14;13.10;65.90
418;DHT22;49;48.530;9.200;2023-04-01T10:39:18;12.80;63.30
418;DHT22;49;48.530;9.200;2023-04-01T10:42:01;12.70;65.60
418;DHT22;49;48.530;9.200;2023-04-01T10:44:50;12.80;65.70
418;DHT22;49;48.530;9.200;2023-04-01T10:53:59;12.70;65.70
418;DHT22;49;48.530;9.200;2023-04-01T10:56:42;12.80;64.40
418;DHT22;49;48.530;9.200;2023-04-01T11:12:40;13.40;61.50
418;DHT22;49;48.530;9.200;2023-04-01T11:15:31;13.40;62.50
418;DHT22;49;48.530;9.200;2023-04-01T11:29:51;13.20;66.10
418;DHT22;49;48.530;9.200;2023-04-01T11:32:29;13.30;62.60
418;DHT22;49;48.530;9.200;2023-04-01T11:35:19;13.50;62.90
418;DHT22;49;48.530;9.200;2023-04-01T11:37:54;13.30;60.30
418;DHT22;49;48.530;9.200;2023-04-01T11:40:36;13.20;61.60
418;DHT22;49;48.530;9.200;2023-04-01T11:43:11;13.00;65.00
418;DHT22;49;48.530;9.200;2023-04-01T11:45:49;12.70;64.70
418;DHT22;49;48.530;9.200;2023-04-01T11:48:36;12.70;66.30
418;DHT22;49;48.530;9.200;2023-04-01T11:54:16;12.90;64.60
418;DHT22;49;48.530;9.200;2023-04-01T11:57:08;13.10;64.20
418;DHT22;49;48.530;9.200;2023-04-01T12:00:02;13.10;63.80
418;DHT22;49;48.530;9.200;2023-04-01T12:02:50;13.30;60.20
418;DHT22;49;48.530;9.200;2023-04-01T12:05:38;13.90;59.20
418;DHT22;49;48.530;9.200;2023-04-01T12:08:19;14.30;56.70
418;DHT22;49;48.530;9.200;2023-04-01T12:10:58;14.20;56.60
418;DHT22;49;48.530;9.200;2023-04-01T12:13:38;13.90;57.20
418;DHT22;49;48.530;9.200;2023-04-01T12:16:34;13.70;58.50
418;DHT22;49;48.530;9.200;2023-04-01T12:19:15;13.60;59.90
418;DHT22;49;48.530;9.200;2023-04-01T12:22:02;14.00;59.70
418;DHT22;49;48.530;9.200;2023-04-01T12:27:41;14.10;60.50
418;DHT22;49;48.530;9.200;2023-04-01T12:30:28;14.30;55.80
418;DHT22;49;48.530;9.200;2023-04-01T12:33:28;14.90;52.00
418;DHT22;49;48.530;9.200;2023-04-01T12:36:10;15.00;48.60
418;DHT22;49;48.530;9.200;2023-04-01T12:38:51;14.00;53.20
418;DHT22;49;48.530;9.200;2023-04-01T12:41:26;14.00;53.20
418;DHT22;49;48.530;9.200;2023-04-01T12:47:08;14.40;51.10
418;DHT22;49;48.530;9.200;2023-04-01T12:50:16;15.00;48.10
418;DHT22;49;48.530;9.200;2023-04-01T12:52:59;15.20;47.40
418;DHT22;49;48.530;9.200;2023-04-01T12:55:40;14.50;48.80
418;DHT22;49;48.530;9.200;2023-04-01T12:58:32;14.50;48.40
418;DHT22;49;48.530;9.200;2023-04-01T13:01:16;14.50;50.10
418;DHT22;49;48.530;9.200;2023-04-01T13:03:59;15.00;46.00
418;DHT22;49;48.530;9.200;2023-04-01T13:06:40;15.20;44.30
418;DHT22;49;48.530;9.200;2023-04-01T13:09:23;14.50;47.40
418;DHT22;49;48.530;9.200;2023-04-01T13:12:16;14.20;48.70
418;DHT22;49;48.530;9.200;2023-04-01T13:15:01;14.20;50.00
418;DHT22;49;48.530;9.200;2023-04-01T13:17:34;14.60;49.30
418;DHT22;49;48.530;9.200;2023-04-01T13:20:11;14.60;48.40
418;DHT22;49;48.530;9.200;2023-04-01T13:22:51;14.90;44.70
418;DHT22;49;48.530;9.200;2023-04-01T13:25:26;15.40;44.70
418;DHT22;49;48.530;9.200;2023-04-01T13:28:06;15.20;39.20
418;DHT22;49;48.530;9.200;2023-04-01T13:30:39;15.30;42.00
418;DHT22;49;48.530;9.200;2023-04-01T13:33:17;15.50;40.10
418;DHT22;49;48.530;9.200;2023-04-01T13:35:58;15.50;39.90
418;DHT22;49;48.530;9.200;2023-04-01T13:38:48;15.20;36.80
418;DHT22;49;48.530;9.200;2023-04-01T13:41:32;14.70;41.50
418;DHT22;49;48.530;9.200;2023-04-01T13:44:11;14.80;37.30
418;DHT22;49;48.530;9.200;2023-04-01T13:47:03;14.80;41.80
418;DHT22;49;48.530;9.200;2023-04-01T13:49:57;15.20;36.10
418;DHT22;49;48.530;9.200;2023-04-01T14:34:06;15.20;33.40
418;DHT22;49;48.530;9.200;2023-04-01T14:39:47;15.00;32.70
418;DHT22;49;48.530;9.200;2023-04-01T14:42:41;15.10;32.30
418;DHT22;49;48.530;9.200;2023-04-01T14:45:45;14.50;34.00
418;DHT22;49;48.530;9.200;2023-04-01T14:48:25;14.50;35.40
418;DHT22;49;48.530;9.200;2023-04-01T15:02:14;14.20;39.00
418;DHT22;49;48.530;9.200;2023-04-01T15:04:52;14.90;37.10
418;DHT22;49;48.530;9.200;2023-04-01T15:07:43;15.00;33.40
418;DHT22;49;48.530;9.200;2023-04-01T15:10:43;14.60;38.20
418;DHT22;49;48.530;9.200;2023-04-01T15:13:18;14.70;36.60
418;DHT22;49;48.530;9.200;2023-04-01T15:16:14;14.90;35.20
418;DHT22;49;48.530;9.200;2023-04-01T15:19:35;15.50;33.10
418;DHT22;49;48.530;9.200;2023-04-01T15:22:11;15.90;32.30
418;DHT22;49;48.530;9.200;2023-04-01T15:24:52;15.70;31.10
418;DHT22;49;48.530;9.200;2023-04-01T15:27:44;15.20;34.80
418;DHT22;49;48.530;9.200;2023-04-01T15:30:45;15.30;32.80
418;DHT22;49;48.530;9.200;2023-04-01T15:33:46;14.80;34.40
418;DHT22;49;48.530;9.200;2023-04-01T15:36:44;14.70;36.20
418;DHT22;49;48.530;9.200;2023-04-01T15:39:22;14.80;35.60
418;DHT22;49;48.530;9.200;2023-04-01T15:42:15;15.10;34.00
418;DHT22;49;48.530;9.200;2023-04-01T15:45:06;14.80;36.50
418;DHT22;49;48.530;9.200;2023-04-01T15:47:46;14.90;34.60
418;DHT22;49;48.530;9.200;2023-04-01T15:56:48;14.60;35.40
418;DHT22;49;48.530;9.200;2023-04-01T16:00:11;14.80;35.30
418;DHT22;49;48.530;9.200;2023-04-01T16:03:21;14.30;36.10
418;DHT22;49;48.530;9.200;2023-04-01T16:06:23;14.00;37.30
418;DHT22;49;48.530;9.200;2023-04-01T16:15:39;13.60;38.70
418;DHT22;49;48.530;9.200;2023-04-01T16:18:44;13.80;38.00
418;DHT22;49;48.530;9.200;2023-04-01T16:21:25;14.30;35.20
418;DHT22;49;48.530;9.200;2023-04-01T16:24:10;14.10;35.90
418;DHT22;49;48.530;9.200;2023-04-01T16:26:57;14.10;35.60
418;DHT22;49;48.530;9.200;2023-04-01T16:30:09;14.00;36.20
418;DHT22;49;48.530;9.200;2023-04-01T16:33:14;13.80;36.60
418;DHT22;49;48.530;9.200;2023-04-01T16:36:10;14.10;35.10
418;DHT22;49;48.530;9.200;2023-04-01T16:38:53;14.60;34.10
418;DHT22;49;48.530;9.200;2023-04-01T16:44:10;14.40;33.20
418;DHT22;49;48.530;9.200;2023-04-01T16:47:05;14.60;34.00
418;DHT22;49;48.530;9.200;2023-04-01T16:49:58;14.70;32.30
418;DHT22;49;48.530;9.200;2023-04-01T16:52:59;14.60;33.20
418;DHT22;49;48.530;9.200;2023-04-01T16:55:48;14.00;35.80
418;DHT22;49;48.530;9.200;2023-04-01T17:01:24;14.10;36.30
418;DHT22;49;48.530;9.200;2023-04-01T17:04:14;14.40;34.30
418;DHT22;49;48.530;9.200;2023-04-01T17:10:50;14.60;34.30
418;DHT22;49;48.530;9.200;2023-04-01T17:13:43;14.50;34.20
418;DHT22;49;48.530;9.200;2023-04-01T17:16:59;14.70;33.90
418;DHT22;49;48.530;9.200;2023-04-01T17:19:49;14.90;33.50
418;DHT22;49;48.530;9.200;2023-04-01T17:22:52;14.80;33.60
418;DHT22;49;48.530;9.200;2023-04-01T17:28:52;14.80;33.20
418;DHT22;49;48.530;9.200;2023-04-01T17:31:45;14.90;33.30
418;DHT22;49;48.530;9.200;2023-04-01T17:34:42;14.70;33.20
418;DHT22;49;48.530;9.200;2023-04-01T17:37:45;14.70;33.10
418;DHT22;49;48.530;9.200;2023-04-01T17:40:39;14.50;34.20
418;DHT22;49;48.530;9.200;2023-04-01T17:43:36;14.30;35.30
418;DHT22;49;48.530;9.200;2023-04-01T17:46:34;14.40;36.20
418;DHT22;49;48.530;9.200;2023-04-01T17:49:27;14.50;33.60
418;DHT22;49;48.530;9.200;2023-04-01T17:52:19;14.40;34.10
418;DHT22;49;48.530;9.200;2023-04-01T18:11:18;14.70;32.10
418;DHT22;49;48.530;9.200;2023-04-01T18:14:04;14.70;31.60
418;DHT22;49;48.530;9.200;2023-04-01T18:16:58;14.60;31.60
418;DHT22;49;48.530;9.200;2023-04-01T18:19:39;14.50;32.30
418;DHT22;49;48.530;9.200;2023-04-01T18:22:16;14.20;33.70
418;DHT22;49;48.530;9.200;2023-04-01T18:24:56;14.10;36.00
418;DHT22;49;48.530;9.200;2023-04-01T18:27:33;14.00;36.10
418;DHT22;49;48.530;9.200;2023-04-01T18:30:13;13.90;35.90
418;DHT22;49;48.530;9.200;2023-04-01T18:35:44;13.20;40.70
418;DHT22;49;48.530;9.200;2023-04-01T18:38:16;13.50;44.10
418;DHT22;49;48.530;9.200;2023-04-01T18:40:50;13.70;42.90
418;DHT22;49;48.530;9.200;2023-04-01T18:43:29;13.70;43.40
418;DHT22;49;48.530;9.200;2023-04-01T18:46:08;13.50;45.80
418;DHT22;49;48.530;9.200;2023-04-01T18:48:44;13.90;43.50
418;DHT22;49;48.530;9.200;2023-04-01T18:51:19;14.00;44.50
418;DHT22;49;48.530;9.200;2023-04-01T18:53:52;14.20;44.00
418;DHT22;49;48.530;9.200;2023-04-01T18:56:28;14.30;43.80
418;DHT22;49;48.530;9.200;2023-04-01T18:59:20;14.60;43.50
418;DHT22;49;48.530;9.200;2023-04-01T19:01:59;14.70;44.20
418;DHT22;49;48.530;9.200;2023-04-01T19:04:31;14.50;45.50
418;DHT22;49;48.530;9.200;2023-04-01T19:07:39;14.30;46.50
418;DHT22;49;48.530;9.200;2023-04-01T19:30:55;13.80;43.00
418;DHT22;49;48.530;9.200;2023-04-01T19:33:47;13.90;42.00
418;DHT22;49;48.530;9.200;2023-04-01T19:36:31;14.00;42.90
418;DHT22;49;48.530;9.200;2023-04-01T19:39:37;13.80;43.30
418;DHT22;49;48.530;9.200;2023-04-01T19:42:37;13.50;45.00
418;DHT22;49;48.530;9.200;2023-04-01T19:45:34;13.20;46.30
418;DHT22;49;48.530;9.200;2023-04-01T19:48:34;13.00;47.20
418;DHT22;49;48.530;9.200;2023-04-01T19:51:10;13.00;48.60
418;DHT22;49;48.530;9.200;2023-04-01T19:53:44;13.20;48.50
418;DHT22;49;48.530;9.200;2023-04-01T19:56:35;13.30;47.20
418;DHT22;49;48.530;9.200;2023-04-01T19:59:11;13.30;46.30
418;DHT22;49;48.530;9.200;2023-04-01T20:01:50;13.40;45.70
418;DHT22;49;48.530;9.200;2023-04-01T20:04:37;13.40;46.40
418;DHT22;49;48.530;9.200;2023-04-01T20:07:19;13.40;45.10
418;DHT22;49;48.530;9.200;2023-04-01T20:09:57;13.40;44.70
418;DHT22;49;48.530;9.200;2023-04-01T20:12:45;13.30;45.60
418;DHT22;49;48.530;9.200;2023-04-01T20:15:26;13.40;45.80
418;DHT22;49;48.530;9.200;2023-04-01T20:17:57;13.30;45.60
418;DHT22;49;48.530;9.200;2023-04-01T20:23:38;13.20;46.40
418;DHT22;49;48.530;9.200;2023-04-01T20:26:22;13.00;47.30
418;DHT22;49;48.530;9.200;2023-04-01T20:29:27;12.90;48.10
418;DHT22;49;48.530;9.200;2023-04-01T20:32:29;12.70;49.30
418;DHT22;49;48.530;9.200;2023-04-01T20:35:31;12.90;50.70
418;DHT22;49;48.530;9.200;2023-04-01T20:38:41;13.10;50.70
418;DHT22;49;48.530;9.200;2023-04-01T20:41:27;13.20;49.80
418;DHT22;49;48.530;9.200;2023-04-01T20:44:04;13.10;48.00
418;DHT22;49;48.530;9.200;2023-04-01T20:46:55;13.30;47.90
418;DHT22;49;48.530;9.200;2023-04-01T20:49:39;13.50;47.20
418;DHT22;49;48.530;9.200;2023-04-01T20:52:25;13.40;45.60
418;DHT22;49;48.530;9.200;2023-04-01T20:55:29;13.40;47.00
418;DHT22;49;48.530;9.200;2023-04-01T20:58:09;13.20;46.30
418;DHT22;49;48.530;9.200;2023-04-01T21:00:58;13.20;46.10
418;DHT22;49;48.530;9.200;2023-04-01T21:03:47;13.30;46.10
418;DHT22;49;48.530;9.200;2023-04-01T21:07:03;13.50;44.50
418;DHT22;49;48.530;9.200;2023-04-01T21:09:48;13.50;43.50
418;DHT22;49;48.530;9.200;2023-04-01T21:12:30;13.30;44.40
418;DHT22;49;48.530;9.200;2023-04-01T21:15:38;13.30;44.70
418;DHT22;49;48.530;9.200;2023-04-01T21:18:24;13.30;44.60
418;DHT22;49;48.530;9.200;2023-04-01T21:21:16;13.20;45.50
418;DHT22;49;48.530;9.200;2023-04-01T21:23:57;13.30;45.60
418;DHT22;49;48.530;9.200;2023-04-01T21:26:36;13.40;44.10
418;DHT22;49;48.530;9.200;2023-04-01T21:35:08;13.70;43.90
418;DHT22;49;48.530;9.200;2023-04-01T21:38:04;13.70;43.10
418;DHT22;49;48.530;9.200;2023-04-01T21:47:00;13.80;43.80
418;DHT22;49;48.530;9.200;2023-04-01T21:49:48;13.70;44.10
418;DHT22;49;48.530;9.200;2023-04-01T22:01:59;12.70;52.00
418;DHT22;49;48.530;9.200;2023-04-01T22:07:20;12.70;50.30
418;DHT22;49;48.530;9.200;2023-04-01T22:09:55;12.80;48.60
418;DHT22;49;48.530;9.200;2023-04-01T22:12:28;13.10;50.30
418;DHT22;49;48.530;9.200;2023-04-01T22:15:03;13.00;46.80
418;DHT22;49;48.530;9.200;2023-04-01T22:17:40;12.90;48.20
418;DHT22;49;48.530;9.200;2023-04-01T22:20:19;13.10;47.20
418;DHT22;49;48.530;9.200;2023-04-01T22:22:59;13.20;46.20
418;DHT22;49;48.530;9.200;2023-04-01T22:25:33;13.20;44.80
418;DHT22;49;48.530;9.200;2023-04-01T22:28:12;13.20;45.10
418;DHT22;49;48.530;9.200;2023-04-01T22:30:49;13.10;44.60
418;DHT22;49;48.530;9.200;2023-04-01T22:33:29;13.10;44.80
418;DHT22;49;48.530;9.200;2023-04-01T22:36:04;12.50;48.70
418;DHT22;49;48.530;9.200;2023-04-01T22:38:48;12.30;50.60
418;DHT22;49;48.530;9.200;2023-04-01T22:41:31;12.30;51.60
418;DHT22;49;48.530;9.200;2023-04-01T22:44:03;12.30;51.10
418;DHT22;49;48.530;9.200;2023-04-01T22:46:44;12.10;51.50
418;DHT22;49;48.530;9.200;2023-04-01T22:49:20;12.30;51.60
418;DHT22;49;48.530;9.200;2023-04-01T22:51:57;12.40;50.60
418;DHT22;49;48.530;9.200;2023-04-01T22:54:32;12.50;50.00
418;DHT22;49;48.530;9.200;2023-04-01T22:57:04;12.40;48.70
418;DHT22;49;48.530;9.200;2023-04-01T22:59:44;12.10;49.90
418;DHT22;49;48.530;9.200;2023-04-01T23:02:15;12.00;53.60
418;DHT22;49;48.530;9.200;2023-04-01T23:04:51;12.00;51.30
418;DHT22;49;48.530;9.200;2023-04-01T23:07:33;12.10;51.20
418;DHT22;49;48.530;9.200;2023-04-01T23:10:18;12.40;49.80
418;DHT22;49;48.530;9.200;2023-04-01T23:12:51;12.20;49.70
418;DHT22;49;48.530;9.200;2023-04-01T23:15:21;12.50;48.40
418;DHT22;49;48.530;9.200;2023-04-01T23:18:08;12.40;48.60
418;DHT22;49;48.530;9.200;2023-04-01T23:20:58;12.40;51.00
418;DHT22;49;48.530;9.200;2023-04-01T23:23:46;12.80;47.90
418;DHT22;49;48.530;9.200;2023-04-01T23:26:23;12.70;46.50
418;DHT22;49;48.530;9.200;2023-04-01T23:28:57;12.30;48.10
418;DHT22;49;48.530;9.200;2023-04-01T23:31:34;12.30;49.10
418;DHT22;49;48.530;9.200;2023-04-01T23:34:20;12.10;50.90
418;DHT22;49;48.530;9.200;2023-04-01T23:37:02;12.20;51.40
418;DHT22;49;48.530;9.200;2023-04-01T23:39:35;12.30;49.00
418;DHT22;49;48.530;9.200;2023-04-01T23:42:06;12.30;50.00
418;DHT22;49;48.530;9.200;2023-04-01T23:44:35;12.20;49.10
418;DHT22;49;48.530;9.200;2023-04-01T23:47:05;12.00;51.30
418;DHT22;49;48.530;9.200;2023-04-01T23:49:39;11.70;56.10
418;DHT22;49;48.530;9.200;2023-04-01T23:52:21;12.00;53.60
418;DHT22;49;48.530;9.200;2023-04-01T23:54:57;11.80;53.00
418;DHT22;49;48.530;9.200;2023-04-01T23:57:34;11.90;52.70
